Hope, Missouri
Current Conditions -  °F | °C
As of 5:53 AM on Thursday 29 Jan 2015 (Local Time) from KJEF Reporting Station
Overcast Overcast  
Wind Chill: 34°   Ceiling: 2300
Heat Index: 43°   Visibility: 10mi
Dew Point: 33°   Wind: 20mph
Humidity: 68%   Direction: 320°NW
Pressure: 30.03"   Gusts: 29mph
Location:  38.5959°N, 91.6636°W
Report Text: KJEF 291153Z 32017G25KT 10SM OVC023 06/01 A3003 RMK AO2 PK WND 31031/1113 SLP158 T00610006 10139 20061 53060
Loading
Personal Weather Stations






























Interactive Weather Map New forecast layout! Learn more

10-Day Weather Forecast

Advertisements
Track Severe Weather on mobile